Time;durP1;ratioP1;P1;durP2;ratioP2;P2;SDS_P1;SDS_P2;PMS_P1;PMS_P2;Temp;Humidity;BMP_temperature;BMP_pressure;BME280_temperature;BME280_humidity;BME280_pressure;Samples;Min_cycle;Max_cycle;Signal;HPM_P1;HPM_P2
2022/03/20 00:00:53;;;;;;;10.98;3.97;;;;;;;4.04;64.00;101867.75;5006532;28;20046;-45
2022/03/20 00:03:23;;;;;;;12.30;4.18;;;;;;;4.06;63.59;101876.41;4997711;28;20052;-45
2022/03/20 00:05:50;;;;;;;8.18;3.97;;;;;;;4.05;63.26;101869.50;5000432;28;20053;-42
2022/03/20 00:08:17;;;;;;;14.07;4.25;;;;;;;4.04;63.42;101859.16;4998873;28;20057;-42
2022/03/20 00:10:48;;;;;;;10.98;4.57;;;;;;;4.03;63.89;101859.97;5007473;28;20058;-44
2022/03/20 00:13:18;;;;;;;13.93;3.75;;;;;;;3.97;64.41;101861.44;5000247;28;20104;-46
2022/03/20 00:15:47;;;;;;;15.43;3.75;;;;;;;3.96;63.46;101854.50;4999823;28;20453;-45
2022/03/20 00:18:15;;;;;;;12.30;3.97;;;;;;;3.94;64.48;101857.78;4999270;28;20045;-44
2022/03/20 00:20:45;;;;;;;14.02;4.38;;;;;;;3.94;63.95;101855.22;5005200;28;20112;-41
2022/03/20 00:23:12;;;;;;;13.18;3.95;;;;;;;3.92;63.87;101844.03;5012873;28;20136;-49
2022/03/20 00:25:44;;;;;;;11.20;3.25;;;;;;;3.88;65.25;101845.53;5004072;28;20038;-47
2022/03/20 00:28:13;;;;;;;7.85;3.00;;;;;;;3.81;65.12;101841.75;5007209;28;20540;-42
2022/03/20 00:30:40;;;;;;;13.45;3.92;;;;;;;3.83;64.32;101831.59;5010860;28;20095;-44
2022/03/20 00:33:08;;;;;;;11.23;3.78;;;;;;;3.80;64.80;101832.31;5016053;28;20053;-42
2022/03/20 00:35:35;;;;;;;14.80;3.83;;;;;;;3.78;64.53;101831.34;5014861;28;20045;-43
2022/03/20 00:38:05;;;;;;;11.20;3.58;;;;;;;3.76;65.60;101825.25;5014324;28;20366;-45
2022/03/20 00:40:32;;;;;;;16.80;4.32;;;;;;;3.76;65.41;101819.25;5019314;28;20049;-41
2022/03/20 00:43:16;;;;;;;9.13;3.45;;;;;;;3.74;65.51;101816.59;5012414;28;20044;-43
2022/03/20 00:45:42;;;;;;;10.90;3.38;;;;;;;3.75;65.69;101825.19;5023768;28;20080;-41
2022/03/20 00:48:09;;;;;;;12.50;3.85;;;;;;;3.74;65.11;101816.59;5015425;28;20494;-45
2022/03/20 00:50:36;;;;;;;11.13;3.88;;;;;;;3.72;65.05;101813.09;4988192;28;20064;-43
2022/03/20 00:53:03;;;;;;;13.30;3.65;;;;;;;3.73;65.02;101812.28;5020556;28;20405;-43
2022/03/20 00:55:30;;;;;;;13.20;3.13;;;;;;;3.72;65.26;101807.97;5017420;28;20042;-42
2022/03/20 00:57:57;;;;;;;16.88;3.58;;;;;;;3.71;64.81;101817.31;5011198;28;20045;-43
2022/03/20 01:00:23;;;;;;;10.93;3.38;;;;;;;3.70;65.77;101799.28;5014683;28;20060;-41
2022/03/20 01:02:50;;;;;;;9.40;3.35;;;;;;;3.69;66.09;101805.22;5006863;28;20143;-47
2022/03/20 01:05:17;;;;;;;12.93;3.78;;;;;;;3.66;66.85;101802.50;5014943;28;20103;-40
2022/03/20 01:07:43;;;;;;;9.73;4.22;;;;;;;3.66;66.02;101802.50;5010054;28;20050;-46
2022/03/20 01:10:11;;;;;;;13.55;3.67;;;;;;;3.67;66.79;101796.56;5010284;28;20060;-44
2022/03/20 01:12:39;;;;;;;12.27;3.45;;;;;;;3.66;68.04;101792.25;5017123;28;20042;-43
2022/03/20 01:15:08;;;;;;;12.88;3.92;;;;;;;3.65;67.68;101800.72;5012612;28;20054;-44
2022/03/20 01:17:52;;;;;;;14.55;4.43;;;;;;;3.64;67.37;101788.72;5012309;28;20040;-45
2022/03/20 01:20:18;;;;;;;11.57;4.70;;;;;;;3.63;67.32;101787.84;5006696;28;20537;-43
2022/03/20 01:22:45;;;;;;;10.85;3.88;;;;;;;3.64;68.16;101788.72;5011871;28;20054;-43
2022/03/20 01:25:18;;;;;;;21.30;4.65;;;;;;;3.63;68.22;101782.72;5010450;28;20044;-41
2022/03/20 01:27:46;;;;;;;11.10;4.15;;;;;;;3.63;67.22;101782.72;5004502;28;20050;-40
2022/03/20 01:30:12;;;;;;;13.50;3.92;;;;;;;3.57;68.69;101778.13;5008358;28;20052;-45
2022/03/20 01:32:39;;;;;;;15.75;4.65;;;;;;;3.57;68.01;101780.69;5015186;28;20045;-44
2022/03/20 01:35:08;;;;;;;14.30;4.82;;;;;;;3.57;67.82;101767.88;5011226;28;20049;-45
2022/03/20 01:37:35;;;;;;;13.95;4.30;;;;;;;3.53;68.56;101771.09;5019563;28;20037;-43
2022/03/20 01:40:03;;;;;;;11.60;4.22;;;;;;;3.51;67.25;101767.53;5013847;28;20104;-43
2022/03/20 01:42:30;;;;;;;21.02;4.65;;;;;;;3.49;67.08;101760.56;5021027;28;20050;-45
2022/03/20 01:44:56;;;;;;;12.40;4.82;;;;;;;3.45;67.74;101767.22;5013070;28;20049;-42
2022/03/20 01:47:23;;;;;;;10.82;4.43;;;;;;;3.43;67.77;101758.56;5006211;28;20084;-45
2022/03/20 01:49:49;;;;;;;12.38;4.30;;;;;;;3.39;68.03;101756.63;5011226;28;20046;-46
2022/03/20 01:52:24;;;;;;;11.23;5.38;;;;;;;3.36;67.78;101756.47;5012826;28;20046;-46
2022/03/20 01:54:51;;;;;;;13.45;4.95;;;;;;;3.34;67.47;101754.72;5002154;28;20085;-46
2022/03/20 01:57:20;;;;;;;13.60;3.90;;;;;;;3.31;67.51;101754.53;5014516;28;20116;-43
2022/03/20 01:59:49;;;;;;;15.65;4.72;;;;;;;3.29;67.96;101745.00;5013104;28;20058;-48
2022/03/20 02:02:16;;;;;;;12.40;4.57;;;;;;;3.25;67.65;101746.53;5004934;28;20050;-46
2022/03/20 02:04:43;;;;;;;14.85;5.22;;;;;;;3.25;68.05;101743.09;5014617;28;20057;-43
2022/03/20 02:07:10;;;;;;;14.48;4.57;;;;;;;3.21;68.37;101742.03;5016093;28;20096;-41
2022/03/20 02:09:56;;;;;;;18.25;4.38;;;;;;;3.18;68.41;101734.19;5010326;28;20597;-47
2022/03/20 02:12:22;;;;;;;13.60;5.03;;;;;;;3.15;68.33;101737.47;5013160;28;20045;-44
2022/03/20 02:14:49;;;;;;;17.27;4.95;;;;;;;3.18;67.73;101729.94;5007982;28;20041;-41
2022/03/20 02:17:15;;;;;;;7.72;3.97;;;;;;;3.15;67.84;101726.34;5009205;28;20437;-43
2022/03/20 02:19:44;;;;;;;11.40;4.25;;;;;;;3.11;68.20;101726.97;5014719;28;20046;-41
2022/03/20 02:22:11;;;;;;;17.88;4.63;;;;;;;3.08;67.71;101725.13;5009549;28;20100;-41
2022/03/20 02:24:41;;;;;;;18.25;4.70;;;;;;;3.08;68.17;101725.13;5005907;28;20061;-41
2022/03/20 02:27:12;;;;;;;;;;;;;;;2.98;69.61;101723.72;5006303;28;22742;-46
2022/03/20 02:29:41;;;;;;;10.02;4.32;;;;;;;3.01;68.27;101723.88;5007056;28;19936;-42
2022/03/20 02:32:09;;;;;;;15.15;4.88;;;;;;;3.00;68.07;101717.00;5006425;28;20046;-43
2022/03/20 02:34:37;;;;;;;15.10;4.72;;;;;;;3.00;69.00;101716.16;5007876;28;20099;-42
2022/03/20 02:37:04;;;;;;;20.27;4.93;;;;;;;3.00;68.54;101711.88;5016624;28;20551;-43
2022/03/20 02:39:31;;;;;;;10.30;4.20;;;;;;;2.97;69.11;101716.81;5008009;28;20049;-44
2022/03/20 02:42:04;;;;;;;17.10;4.78;;;;;;;2.96;68.38;101720.19;5011658;28;20111;-45
2022/03/20 02:44:54;;;;;;;12.57;5.15;;;;;;;2.93;68.61;101712.34;5008660;28;20461;-43
2022/03/20 02:47:24;;;;;;;14.55;5.13;;;;;;;2.92;69.43;101702.91;5009294;28;20046;-40
2022/03/20 02:49:55;;;;;;;10.13;3.75;;;;;;;2.90;69.09;101699.38;4998703;28;20414;-44
2022/03/20 02:52:24;;;;;;;10.25;4.10;;;;;;;2.87;69.73;101696.66;5006111;28;20045;-41
2022/03/20 02:54:52;;;;;;;9.95;4.85;;;;;;;2.85;68.95;101690.56;5007438;28;20473;-43
2022/03/20 02:57:19;;;;;;;11.40;4.63;;;;;;;2.81;69.65;101695.50;5011432;28;20108;-40
2022/03/20 02:59:46;;;;;;;16.08;4.88;;;;;;;2.77;70.34;101683.34;5018628;28;20100;-42
2022/03/20 03:02:13;;;;;;;10.80;5.18;;;;;;;2.77;69.45;101687.59;5002839;28;20112;-42
2022/03/20 03:04:41;;;;;;;18.52;4.35;;;;;;;2.75;69.95;101684.94;5016116;28;20042;-46
2022/03/20 03:07:09;;;;;;;5.43;3.75;;;;;;;2.72;69.55;101674.53;5014255;28;20053;-43
2022/03/20 03:12:22;;;;;;;22.20;6.13;;;;;;;2.69;69.28;101680.34;5008243;28;20759;-48
2022/03/20 03:17:35;;;;;;;10.43;4.40;;;;;;;2.64;68.87;101670.66;5014382;28;20067;-45
2022/03/20 03:20:02;;;;;;;11.93;4.10;;;;;;;2.62;68.53;101667.13;5017904;28;20172;-45
2022/03/20 03:22:29;;;;;;;12.40;5.07;;;;;;;2.62;69.13;101667.13;5014724;28;20100;-42
2022/03/20 03:24:56;;;;;;;19.00;4.53;;;;;;;2.59;69.54;101661.81;5013331;28;20057;-39
2022/03/20 03:27:22;;;;;;;11.50;4.53;;;;;;;2.55;70.24;101656.56;5018707;28;20050;-44
2022/03/20 03:29:49;;;;;;;11.20;4.72;;;;;;;2.55;69.87;101659.13;5016380;28;20045;-40
2022/03/20 03:32:16;;;;;;;27.30;5.40;;;;;;;2.53;70.52;101655.59;5005919;28;20054;-39
2022/03/20 03:37:30;;;;;;;9.55;4.88;;;;;;;2.51;71.22;101654.63;5013665;28;20050;-41
2022/03/20 03:39:57;;;;;;;12.13;5.47;;;;;;;2.50;70.87;101650.28;5013850;28;20553;-45
2022/03/20 03:42:23;;;;;;;15.18;5.75;;;;;;;2.48;70.35;101648.44;5012320;28;20466;-40
2022/03/20 03:44:51;;;;;;;20.73;5.75;;;;;;;2.48;70.14;101649.34;5014000;28;21289;-39
2022/03/20 03:47:17;;;;;;;13.38;4.78;;;;;;;2.48;70.16;101638.22;5006714;28;20049;-42
2022/03/20 03:49:44;;;;;;;16.42;4.75;;;;;;;2.44;71.18;101632.91;5016843;28;20973;-47
2022/03/20 03:52:11;;;;;;;19.17;4.80;;;;;;;2.43;71.15;101640.50;5006834;28;20880;-41
2022/03/20 03:54:38;;;;;;;16.65;5.53;;;;;;;2.41;70.34;101637.00;5012091;28;20094;-40
2022/03/20 03:57:05;;;;;;;21.63;5.03;;;;;;;2.39;70.84;101626.69;5006232;28;20092;-46
2022/03/20 03:59:31;;;;;;;10.30;4.75;;;;;;;2.38;71.23;101624.91;4994356;28;20109;-46
2022/03/20 04:01:58;;;;;;;13.02;5.55;;;;;;;2.36;70.77;101617.97;5008871;28;20506;-49
2022/03/20 04:04:25;;;;;;;13.50;4.95;;;;;;;2.33;71.24;101621.19;5006855;28;20065;-40
2022/03/20 04:06:52;;;;;;;16.33;4.88;;;;;;;2.29;70.88;101615.06;5007011;28;20105;-41
2022/03/20 04:09:19;;;;;;;14.80;5.25;;;;;;;2.28;71.19;101610.72;5012871;28;20049;-45
2022/03/20 04:11:45;;;;;;;12.13;4.63;;;;;;;2.26;71.63;101612.31;5005418;28;20050;-43
2022/03/20 04:14:12;;;;;;;11.90;4.43;;;;;;;2.25;71.23;101604.56;5015044;28;20057;-40
2022/03/20 04:16:39;;;;;;;16.42;5.30;;;;;;;2.23;71.72;101601.91;5012109;28;22325;-41
2022/03/20 04:19:05;;;;;;;20.00;6.15;;;;;;;2.23;71.09;101601.03;5013059;28;20055;-43
2022/03/20 04:21:32;;;;;;;12.20;4.78;;;;;;;2.19;70.92;101597.41;5009721;28;20045;-39
2022/03/20 04:23:59;;;;;;;10.80;4.65;;;;;;;2.17;70.91;101596.47;5005719;28;20046;-47
2022/03/20 04:26:26;;;;;;;12.82;4.68;;;;;;;2.16;71.50;101594.72;5011067;28;20095;-43
2022/03/20 04:28:53;;;;;;;12.23;5.05;;;;;;;2.14;70.72;101591.16;5012976;28;20068;-46
2022/03/20 04:31:20;;;;;;;12.55;4.75;;;;;;;2.13;69.71;101591.97;5013518;28;20049;-48
2022/03/20 04:33:51;;;;;;;11.07;4.32;;;;;;;2.12;70.80;101587.63;5013122;28;20043;-43
2022/03/20 04:36:21;;;;;;;10.80;5.07;;;;;;;2.09;70.96;101584.94;4995703;28;20057;-46
2022/03/20 04:38:51;;;;;;;10.88;4.97;;;;;;;2.02;71.30;101587.13;5005698;28;20049;-42
2022/03/20 04:41:18;;;;;;;11.27;4.15;;;;;;;1.98;72.37;101587.75;5007788;28;20045;-46
2022/03/20 04:43:47;;;;;;;11.07;4.60;;;;;;;2.00;72.01;101583.63;5013429;28;20050;-42
2022/03/20 04:46:14;;;;;;;13.55;4.28;;;;;;;2.00;70.63;101585.28;5014338;28;20046;-42
2022/03/20 04:59:49;;;;;;;14.30;4.32;;;;;;;1.93;71.19;101581.50;5015322;28;20049;-43
2022/03/20 05:02:16;;;;;;;14.15;5.25;;;;;;;1.92;71.33;101579.72;5012837;28;20112;-46
2022/03/20 05:04:42;;;;;;;14.90;5.22;;;;;;;1.91;70.98;101578.84;5007916;28;20536;-43
2022/03/20 05:07:09;;;;;;;11.93;5.00;;;;;;;1.89;72.29;101577.00;5005178;28;20100;-43
2022/03/20 05:15:10;;;;;;;12.10;4.45;;;;;;;1.84;72.17;101575.84;5005546;28;20176;-45
2022/03/20 05:17:38;;;;;;;15.50;4.95;;;;;;;1.81;70.77;101576.53;5011610;28;20041;-47
2022/03/20 05:20:05;;;;;;;15.70;5.38;;;;;;;1.77;71.65;101570.38;5006982;28;20533;-43
2022/03/20 05:22:35;;;;;;;14.90;5.72;;;;;;;1.77;72.73;101572.06;5014318;28;20045;-42
2022/03/20 05:25:06;;;;;;;13.60;6.28;;;;;;;1.77;71.93;101567.84;5005678;28;20061;-42
2022/03/20 05:27:33;;;;;;;8.00;4.32;;;;;;;1.75;72.32;101569.41;5017016;28;20085;-42
2022/03/20 05:30:05;;;;;;;11.35;4.18;;;;;;;1.75;71.82;101569.41;5013885;28;20076;-40
2022/03/20 05:32:33;;;;;;;9.45;3.72;;;;;;;1.74;71.34;101560.00;5010087;28;20445;-41
2022/03/20 05:35:00;;;;;;;14.63;4.82;;;;;;;1.75;71.01;101565.97;5003563;28;20714;-39
2022/03/20 05:37:27;;;;;;;13.98;4.97;;;;;;;1.73;70.47;101568.44;5005905;28;20514;-44
2022/03/20 05:39:54;;;;;;;9.85;4.68;;;;;;;1.72;70.96;101561.56;5014084;28;20045;-45
2022/03/20 05:42:20;;;;;;;13.38;4.70;;;;;;;1.70;70.27;101560.59;5010862;28;20046;-45
2022/03/20 05:44:47;;;;;;;12.77;5.60;;;;;;;1.68;70.38;101564.72;5011299;28;20049;-42
2022/03/20 05:47:14;;;;;;;13.73;5.03;;;;;;;1.67;70.98;101562.97;5010443;28;20073;-40
2022/03/20 05:49:40;;;;;;;21.08;5.70;;;;;;;1.65;71.01;101559.44;5009510;28;20103;-44
2022/03/20 05:52:07;;;;;;;15.48;4.18;;;;;;;1.64;71.13;101562.78;5015966;28;20144;-49
2022/03/20 05:54:34;;;;;;;12.95;5.00;;;;;;;1.66;71.04;101556.97;5008971;28;20496;-45
2022/03/20 05:59:49;;;;;;;9.68;4.70;;;;;;;1.66;70.95;101567.19;5011989;28;20054;-41
2022/03/20 06:02:16;;;;;;;12.00;4.93;;;;;;;1.67;70.95;101562.97;5007460;28;20050;-46
2022/03/20 06:04:43;;;;;;;13.40;4.45;;;;;;;1.66;70.93;101561.22;5012087;28;20119;-43
2022/03/20 06:07:10;;;;;;;16.77;5.40;;;;;;;1.68;70.77;101562.16;5006642;28;20049;-49
2022/03/20 06:09:37;;;;;;;14.35;4.60;;;;;;;1.67;71.51;101562.97;5011066;28;20486;-40
2022/03/20 06:12:07;;;;;;;14.02;4.55;;;;;;;1.69;70.20;101561.38;5012716;28;20079;-43
2022/03/20 06:14:35;;;;;;;9.18;4.28;;;;;;;1.68;71.32;101562.16;5012898;28;20053;-41
2022/03/20 06:17:05;;;;;;;16.85;4.35;;;;;;;1.68;71.90;101564.72;5010691;28;20062;-49
2022/03/20 06:19:32;;;;;;;17.08;4.78;;;;;;;1.69;71.12;101563.94;5000971;28;20056;-45
2022/03/20 06:21:59;;;;;;;6.30;4.07;;;;;;;1.70;71.81;101563.16;5011218;28;20042;-42
2022/03/20 06:24:25;;;;;;;11.52;4.78;;;;;;;1.72;71.45;101553.88;5002532;28;20050;-40
2022/03/20 06:26:52;;;;;;;7.70;4.53;;;;;;;1.74;71.56;101553.97;5010853;28;20105;-43
2022/03/20 06:29:18;;;;;;;15.60;4.38;;;;;;;1.78;71.93;101561.91;5015932;28;20041;-42
2022/03/20 06:31:48;;;;;;;15.50;4.38;;;;;;;1.81;71.45;101566.31;5006131;28;20429;-48
2022/03/20 06:34:15;;;;;;;9.98;4.93;;;;;;;1.83;71.35;101566.41;5005893;28;20054;-44
2022/03/20 06:36:42;;;;;;;14.40;5.43;;;;;;;1.85;72.67;101569.91;5007853;28;20587;-48
2022/03/20 06:39:09;;;;;;;12.15;4.78;;;;;;;1.87;71.66;101570.91;5016674;28;20062;-48
2022/03/20 06:41:36;;;;;;;11.77;5.20;;;;;;;1.90;71.72;101571.09;5008231;28;20107;-46
2022/03/20 06:44:05;;;;;;;13.07;4.43;;;;;;;1.92;71.77;101574.59;5012714;28;20049;-40
2022/03/20 06:46:33;;;;;;;14.95;4.78;;;;;;;1.95;71.08;101574.78;5011046;28;20053;-43
2022/03/20 06:49:00;;;;;;;15.40;4.57;;;;;;;1.98;70.97;101569.84;5014710;28;20048;-42
2022/03/20 06:51:26;;;;;;;10.32;5.03;;;;;;;2.02;71.96;101571.78;5012537;28;20533;-41
2022/03/20 06:53:53;;;;;;;10.18;4.75;;;;;;;2.04;72.41;101575.31;5012479;28;20131;-46
2022/03/20 06:56:20;;;;;;;13.40;4.43;;;;;;;2.05;72.11;101571.97;5015684;28;20096;-48
2022/03/20 06:59:03;;;;;;;9.98;4.65;;;;;;;2.11;71.90;101566.31;5017780;28;20200;-40
2022/03/20 07:01:30;;;;;;;9.88;4.18;;;;;;;2.16;70.54;101569.16;5010443;28;20058;-41
2022/03/20 07:03:57;;;;;;;14.35;5.40;;;;;;;2.20;71.19;101563.41;5015508;28;20046;-41
2022/03/20 07:06:27;;;;;;;11.43;4.45;;;;;;;2.25;70.21;101559.41;5014573;28;20050;-43
2022/03/20 07:08:59;;;;;;;13.45;5.38;;;;;;;2.29;70.24;101576.69;5017791;28;20053;-47
2022/03/20 07:11:32;;;;;;;10.30;5.10;;;;;;;2.34;71.84;101569.28;5018388;28;20057;-44
2022/03/20 07:14:00;;;;;;;15.85;5.65;;;;;;;2.40;70.40;101563.63;5015693;28;20141;-43
2022/03/20 07:16:31;;;;;;;15.43;6.05;;;;;;;2.47;70.67;101567.41;5013683;28;20061;-41
2022/03/20 07:19:15;;;;;;;13.18;4.20;;;;;;;2.53;70.03;101566.06;5015682;28;20504;-42
2022/03/20 07:21:42;;;;;;;13.65;4.40;;;;;;;2.57;71.69;101562.88;5002961;28;20116;-44
2022/03/20 07:24:08;;;;;;;16.02;6.07;;;;;;;2.65;71.37;101559.84;5011951;28;20049;-48
2022/03/20 07:29:37;;;;;;;9.60;6.18;;;;;;;2.88;70.90;101567.88;5013697;28;20061;-42
2022/03/20 07:32:06;;;;;;;12.30;5.55;;;;;;;3.66;71.28;101561.59;5012440;28;20058;-43
2022/03/20 07:34:34;;;;;;;19.45;6.55;;;;;;;4.81;71.21;101567.03;5013099;28;20054;-46
2022/03/20 07:37:03;;;;;;;16.63;6.47;;;;;;;5.96;69.89;101565.03;5009221;28;20131;-47
2022/03/20 07:39:30;;;;;;;14.98;5.57;;;;;;;6.99;67.06;101558.69;5012096;28;20050;-46
2022/03/20 07:41:57;;;;;;;14.27;5.55;;;;;;;7.98;66.19;101562.03;5010949;28;20045;-43
2022/03/20 07:44:25;;;;;;;10.75;5.65;;;;;;;8.92;64.69;101564.00;5014801;28;20104;-50
2022/03/20 07:46:54;;;;;;;10.80;5.28;;;;;;;9.74;62.78;101563.63;5015130;28;20054;-43
2022/03/20 07:49:21;;;;;;;12.30;5.80;;;;;;;10.48;60.87;101561.03;5009076;28;20505;-43
2022/03/20 07:51:48;;;;;;;11.50;5.57;;;;;;;11.17;59.05;101567.59;5021206;28;20061;-42
2022/03/20 07:54:15;;;;;;;8.80;4.63;;;;;;;11.75;58.15;101564.31;5009528;28;20104;-44
2022/03/20 07:56:42;;;;;;;9.57;4.97;;;;;;;12.33;55.58;101563.50;5011954;28;20054;-42
2022/03/20 07:59:10;;;;;;;10.93;4.85;;;;;;;12.94;55.90;101571.22;5011892;28;20053;-46
2022/03/20 08:01:36;;;;;;;11.48;4.65;;;;;;;13.43;54.07;101562.19;5004749;28;20104;-47
2022/03/20 08:04:04;;;;;;;9.30;4.40;;;;;;;13.59;51.92;101566.72;5008377;28;20061;-45
2022/03/20 08:06:31;;;;;;;10.75;4.60;;;;;;;13.68;52.54;101565.91;5010516;28;20053;-43
2022/03/20 08:08:59;;;;;;;12.35;4.65;;;;;;;13.84;51.73;101576.47;5002336;28;20418;-45
2022/03/20 08:11:28;;;;;;;10.85;4.43;;;;;;;14.12;52.07;101569.72;5010273;28;20046;-45
2022/03/20 08:13:57;;;;;;;14.85;4.63;;;;;;;14.50;50.75;101562.16;5008699;28;20048;-44
2022/03/20 08:16:26;;;;;;;11.27;4.85;;;;;;;14.80;50.65;101563.19;5006179;28;20045;-44
2022/03/20 08:18:54;;;;;;;10.38;4.75;;;;;;;15.09;49.21;101567.63;5008014;28;20520;-48
2022/03/20 08:21:21;;;;;;;12.02;4.68;;;;;;;15.23;48.90;101564.19;5008389;28;20057;-50
2022/03/20 08:23:48;;;;;;;14.32;5.00;;;;;;;15.58;49.21;101565.97;5004815;28;20061;-45
2022/03/20 08:26:15;;;;;;;11.18;5.18;;;;;;;15.86;48.41;101563.38;5004832;28;20107;-48
2022/03/20 08:28:42;;;;;;;12.25;5.45;;;;;;;16.02;47.09;101563.38;5008029;28;20361;-40
2022/03/20 08:31:09;;;;;;;11.77;5.40;;;;;;;16.18;46.56;101567.72;5007149;28;20103;-43
2022/03/20 08:33:36;;;;;;;9.20;4.65;;;;;;;16.22;46.22;101559.88;5006156;28;20048;-46
2022/03/20 08:36:05;;;;;;;10.82;4.93;;;;;;;16.14;46.12;101557.28;5024779;28;20053;-48
2022/03/20 08:38:32;;;;;;;10.32;5.28;;;;;;;16.08;46.30;101560.78;5017397;28;20045;-56
2022/03/20 08:40:59;;;;;;;11.70;6.22;;;;;;;16.28;46.36;101552.88;5003547;28;20046;-47
2022/03/20 08:43:26;;;;;;;8.88;5.07;;;;;;;16.65;46.41;101554.50;5009190;28;20049;-45
2022/03/20 08:45:53;;;;;;;11.80;3.53;;;;;;;16.95;44.84;101555.25;5007223;28;20793;-42
2022/03/20 08:48:19;;;;;;;14.82;5.60;;;;;;;17.18;44.17;101549.03;5003762;28;20135;-45
2022/03/20 08:50:50;;;;;;;10.68;5.60;;;;;;;17.21;44.76;101546.41;5011599;28;20099;-50
2022/03/20 08:53:18;;;;;;;8.73;5.13;;;;;;;17.00;44.62;101551.72;5009114;28;20077;-48
2022/03/20 08:55:47;;;;;;;12.05;5.90;;;;;;;16.53;44.99;101541.47;5003938;28;20858;-49
2022/03/20 08:58:14;;;;;;;12.57;5.55;;;;;;;16.06;45.51;101536.38;5008091;28;20541;-43
2022/03/20 09:00:42;;;;;;;11.95;6.15;;;;;;;15.58;46.03;101539.88;5005338;28;20046;-52
2022/03/20 09:03:10;;;;;;;13.20;6.20;;;;;;;15.02;46.74;101531.94;5012500;28;20057;-44
2022/03/20 09:05:38;;;;;;;11.10;5.20;;;;;;;15.14;47.63;101529.34;5010595;28;20201;-51
2022/03/20 09:08:05;;;;;;;13.60;6.05;;;;;;;15.10;46.78;101532.84;5012548;28;20053;-48
2022/03/20 09:10:33;;;;;;;13.90;4.82;;;;;;;15.39;47.46;101518.09;5009272;28;20666;-51
2022/03/20 09:13:00;;;;;;;15.65;6.05;;;;;;;15.67;46.92;101518.97;5006255;28;20100;-50
2022/03/20 09:15:29;;;;;;;11.50;6.18;;;;;;;15.45;46.22;101512.00;5004418;28;20050;-49
2022/03/20 09:20:43;;;;;;;19.10;6.65;;;;;;;14.97;47.52;101507.59;5005291;28;20057;-57
2022/03/20 09:23:12;;;;;;;14.20;6.80;;;;;;;15.00;46.65;101505.00;4983348;28;20049;-50
2022/03/20 09:25:39;;;;;;;12.90;6.45;;;;;;;14.93;44.45;101503.22;5005124;28;20041;-47
2022/03/20 09:28:08;;;;;;;14.65;6.82;;;;;;;14.57;45.86;101495.25;5000195;28;20108;-43
2022/03/20 09:30:38;;;;;;;15.95;6.65;;;;;;;14.20;46.25;101501.16;5008922;28;20070;-44
2022/03/20 09:33:05;;;;;;;;;;;;;;;14.00;45.34;101494.13;5004060;28;20048;-46
2022/03/20 09:35:33;;;;;;;9.02;4.18;;;;;;;13.35;46.44;101487.50;5003332;28;21236;-46
2022/03/20 09:38:01;;;;;;;16.10;7.07;;;;;;;13.07;48.81;101476.00;5004350;28;20119;-49
2022/03/20 09:40:33;;;;;;;14.25;6.90;;;;;;;13.35;48.64;101484.91;5015048;28;20101;-45
2022/03/20 09:43:00;;;;;;;16.92;7.25;;;;;;;13.68;48.46;101476.53;5005902;28;20049;-48
2022/03/20 09:45:27;;;;;;;16.15;6.80;;;;;;;13.91;47.90;101468.03;5001995;28;20061;-48
2022/03/20 09:47:54;;;;;;;12.73;5.85;;;;;;;13.65;48.36;101466.09;5005631;28;20103;-48
2022/03/20 09:50:20;;;;;;;16.92;6.97;;;;;;;13.60;46.98;101466.94;5002171;28;20073;-48
2022/03/20 09:52:47;;;;;;;15.07;7.20;;;;;;;13.90;47.38;101461.03;5004670;28;20072;-46
2022/03/20 09:55:14;;;;;;;13.45;7.88;;;;;;;13.78;46.96;101462.72;5003198;28;20489;-46
2022/03/20 09:57:40;;;;;;;14.98;7.80;;;;;;;13.97;46.33;101462.81;5000456;28;20049;-45
2022/03/20 10:00:11;;;;;;;16.17;8.55;;;;;;;14.20;47.54;101449.06;5005995;28;20049;-49
2022/03/20 10:02:38;;;;;;;14.48;6.85;;;;;;;14.75;45.62;101457.94;5004505;28;20062;-45
2022/03/20 10:05:07;;;;;;;20.42;8.00;;;;;;;15.22;44.49;101447.59;5003298;28;20050;-52
2022/03/20 10:07:40;;;;;;;18.88;6.75;;;;;;;15.40;45.12;101442.38;5005088;28;20382;-54
2022/03/20 10:12:49;;;;;;;18.67;8.95;;;;;;;15.61;42.67;101435.41;5039070;27;20423;-56
2022/03/20 10:28:50;;;;;;;21.40;8.80;;;;;;;15.00;43.57;101421.50;5014493;28;21412;-51
2022/03/20 10:31:20;;;;;;;16.88;9.05;;;;;;;14.42;43.66;101415.28;4988125;28;20046;-47
2022/03/20 10:34:05;;;;;;;18.20;8.45;;;;;;;13.71;43.60;101420.16;4984875;28;20510;-47
2022/03/20 10:36:33;;;;;;;15.02;7.50;;;;;;;13.44;45.85;101405.19;5013664;28;20050;-46
2022/03/20 10:39:00;;;;;;;17.85;8.35;;;;;;;13.66;44.83;101407.97;5008545;28;20055;-52
2022/03/20 10:41:34;;;;;;;15.38;7.22;;;;;;;13.71;44.35;101414.09;5015214;28;20046;-51
2022/03/20 10:44:25;;;;;;;15.93;7.88;;;;;;;13.29;44.43;101401.63;4984752;28;20082;-48
2022/03/20 10:47:04;;;;;;;18.77;8.30;;;;;;;13.20;44.01;101401.53;4994425;28;20042;-43
2022/03/20 10:49:32;;;;;;;18.10;8.18;;;;;;;13.46;45.66;101403.47;5007293;28;20042;-45
2022/03/20 10:52:10;;;;;;;16.90;8.38;;;;;;;13.71;44.37;101399.31;5006358;28;20049;-49
2022/03/20 10:54:42;;;;;;;15.95;7.63;;;;;;;13.90;44.21;101401.16;5001148;28;20120;-46
2022/03/20 10:57:10;;;;;;;19.23;9.55;;;;;;;14.19;44.42;101395.22;5002782;28;20105;-49
2022/03/20 10:59:38;;;;;;;19.42;8.63;;;;;;;14.40;44.27;101400.47;4995597;28;20058;-48
2022/03/20 11:02:18;;;;;;;17.27;9.05;;;;;;;14.31;43.99;101395.25;4997285;28;20058;-45
2022/03/20 11:04:45;;;;;;;15.48;7.90;;;;;;;14.00;42.63;101395.13;5017743;28;20046;-45
2022/03/20 11:07:16;;;;;;;17.50;8.80;;;;;;;13.69;43.31;101398.44;5004567;28;20446;-51
2022/03/20 11:10:00;;;;;;;16.80;7.38;;;;;;;13.61;44.43;101393.19;5004300;28;20492;-47
2022/03/20 11:12:31;;;;;;;14.13;6.75;;;;;;;13.41;42.84;101389.56;5012468;28;20042;-52
2022/03/20 11:15:01;;;;;;;12.43;7.00;;;;;;;13.30;42.75;101387.75;5004252;28;20158;-50
2022/03/20 11:20:21;;;;;;;15.57;6.55;;;;;;;12.83;43.42;101383.88;5053222;28;20392;-50
2022/03/20 11:22:50;;;;;;;19.13;7.97;;;;;;;12.62;43.00;101384.53;5009442;28;20101;-55
2022/03/20 11:25:21;;;;;;;17.15;8.27;;;;;;;12.65;43.75;101388.03;5002227;28;20049;-56
2022/03/20 11:28:01;;;;;;;13.95;6.88;;;;;;;12.65;44.34;101371.56;4997168;28;20473;-46
2022/03/20 11:30:31;;;;;;;15.50;7.28;;;;;;;12.62;42.86;101376.72;4998685;28;20062;-45
2022/03/20 11:33:01;;;;;;;16.70;7.72;;;;;;;12.74;43.64;101376.88;5003400;28;20053;-51
2022/03/20 11:35:31;;;;;;;17.83;6.50;;;;;;;12.36;42.73;101369.56;5001413;28;20493;-45
2022/03/20 11:47:19;;;;;;;18.42;9.15;;;;;;;11.76;43.15;101353.19;5039737;27;20915;-46
2022/03/20 11:50:25;;;;;;;16.73;8.07;;;;;;;11.75;43.13;101359.25;5038128;28;20049;-43
2022/03/20 12:01:02;;;;;;;15.25;7.68;;;;;;;11.49;44.24;101341.63;5068572;27;20393;-49
2022/03/20 18:01:36;;;;;;;24.65;12.90;;;;;;;9.41;47.20;101170.53;5050872;28;20427;-41
2022/03/20 18:09:35;;;;;;;23.73;11.65;;;;;;;9.13;49.21;101179.44;5017955;28;20056;-47
2022/03/20 18:12:03;;;;;;;30.83;12.95;;;;;;;9.03;49.21;101184.41;5018382;28;20127;-47
2022/03/20 18:14:30;;;;;;;25.63;10.98;;;;;;;8.89;49.51;101187.56;5012344;28;20517;-43
2022/03/20 18:16:56;;;;;;;22.33;11.60;;;;;;;8.72;50.56;101185.44;5016466;28;20042;-45
2022/03/20 18:19:23;;;;;;;29.70;13.82;;;;;;;8.63;51.23;101181.78;5015299;28;20060;-44
2022/03/20 18:21:55;;;;;;;28.38;12.07;;;;;;;8.51;51.25;101195.25;5017130;28;20088;-46
2022/03/20 18:24:22;;;;;;;27.42;12.70;;;;;;;8.38;51.56;101189.78;5017205;28;20046;-45
2022/03/20 18:26:49;;;;;;;26.10;11.13;;;;;;;8.17;53.42;101190.97;5016508;28;20493;-47
2022/03/20 18:29:15;;;;;;;29.42;12.82;;;;;;;8.09;54.00;101190.78;5013253;28;20089;-44
2022/03/20 18:31:42;;;;;;;36.17;13.25;;;;;;;8.05;52.24;101198.41;5016269;28;20744;-51
2022/03/20 18:34:09;;;;;;;28.17;12.13;;;;;;;7.91;53.96;101201.47;5016138;28;20046;-42
2022/03/20 18:36:35;;;;;;;29.42;12.68;;;;;;;7.86;53.81;101200.50;5014441;28;20053;-43
2022/03/20 18:39:02;;;;;;;30.38;13.25;;;;;;;7.77;53.18;101206.25;5011000;28;20108;-48
2022/03/20 18:41:29;;;;;;;31.25;12.82;;;;;;;7.69;53.41;101200.91;5009880;28;20052;-40
2022/03/20 18:43:55;;;;;;;30.25;13.15;;;;;;;7.63;54.57;101205.88;5015561;28;20046;-45